Time;durP1;ratioP1;P1;durP2;ratioP2;P2;SDS_P1;SDS_P2;PMS_P1;PMS_P2;Temp;Humidity;BMP_temperature;BMP_pressure;BME280_temperature;BME280_humidity;BME280_pressure;Samples;Min_cycle;Max_cycle;Signal;HPM_P1;HPM_P2
2024/03/09 00:00:39;;;;;;;9.10;6.28;;;6.40;99.90;;;;;;5021593;28;20437;-73
2024/03/09 00:03:07;;;;;;;8.10;5.90;;;6.40;99.90;;;;;;5014614;28;20436;-77
2024/03/09 00:05:34;;;;;;;8.45;6.20;;;6.40;99.90;;;;;;5021891;28;20046;-74
2024/03/09 00:08:02;;;;;;;6.95;5.20;;;6.40;99.90;;;;;;5012693;28;20112;-71
2024/03/09 00:10:30;;;;;;;8.68;6.43;;;6.40;99.90;;;;;;5022041;28;20052;-71
2024/03/09 00:12:59;;;;;;;7.50;5.90;;;6.40;99.90;;;;;;5019757;28;20088;-72
2024/03/09 00:15:26;;;;;;;8.23;6.10;;;6.40;99.90;;;;;;5021116;28;20049;-76
2024/03/09 00:17:55;;;;;;;7.18;5.53;;;6.40;99.90;;;;;;5021940;28;20053;-74
2024/03/09 00:20:26;;;;;;;5.82;4.95;;;6.50;99.90;;;;;;5010517;28;20514;-72
2024/03/09 00:22:55;;;;;;;7.38;5.68;;;6.40;99.90;;;;;;5003917;28;20555;-72
2024/03/09 00:25:22;;;;;;;9.25;6.57;;;6.40;99.90;;;;;;5020377;28;20051;-74
2024/03/09 00:27:52;;;;;;;8.23;5.88;;;6.40;99.90;;;;;;5017079;28;20081;-70
2024/03/09 00:30:19;;;;;;;9.38;7.07;;;6.40;99.90;;;;;;5002852;28;20116;-76
2024/03/09 00:32:48;;;;;;;9.38;6.30;;;6.40;99.90;;;;;;5002726;28;20394;-73
2024/03/09 00:35:16;;;;;;;9.45;6.40;;;6.50;99.90;;;;;;5018569;28;20136;-77
2024/03/09 00:37:43;;;;;;;8.95;6.57;;;6.50;99.90;;;;;;5019716;28;20547;-74
2024/03/09 00:40:10;;;;;;;10.13;7.15;;;6.50;99.90;;;;;;5023218;28;20136;-72
2024/03/09 00:42:37;;;;;;;8.27;6.13;;;6.50;99.90;;;;;;5005305;28;20103;-73
2024/03/09 00:45:05;;;;;;;11.10;6.68;;;6.50;99.90;;;;;;5038491;28;20048;-75
2024/03/09 00:47:32;;;;;;;7.53;5.43;;;6.60;99.90;;;;;;5024592;28;20443;-75
2024/03/09 00:49:59;;;;;;;7.90;5.90;;;6.60;99.90;;;;;;5024468;28;20084;-75
2024/03/09 00:52:26;;;;;;;7.75;6.03;;;6.60;99.90;;;;;;5024921;28;20053;-74
2024/03/09 00:54:54;;;;;;;8.02;5.38;;;6.60;99.90;;;;;;5024512;28;20132;-74
2024/03/09 00:57:22;;;;;;;8.80;6.32;;;6.60;99.90;;;;;;5018703;28;20053;-72
2024/03/09 00:59:49;;;;;;;8.82;6.95;;;6.70;99.90;;;;;;5025782;28;20381;-75
2024/03/09 01:02:18;;;;;;;7.30;5.85;;;6.70;99.90;;;;;;5024311;28;20046;-76
2024/03/09 01:04:51;;;;;;;8.27;6.10;;;6.70;99.90;;;;;;5020239;28;20053;-73
2024/03/09 01:07:20;;;;;;;6.25;4.97;;;6.80;99.90;;;;;;5007280;28;20061;-76
2024/03/09 01:09:50;;;;;;;6.35;4.82;;;6.80;99.90;;;;;;5024825;28;20041;-74
2024/03/09 01:12:17;;;;;;;6.63;4.55;;;6.80;99.90;;;;;;5023275;28;20265;-77
2024/03/09 01:14:48;;;;;;;5.40;3.75;;;6.80;99.90;;;;;;5025749;28;20564;-75
2024/03/09 01:17:20;;;;;;;5.78;4.00;;;6.80;99.90;;;;;;5023671;28;20160;-75
2024/03/09 01:19:48;;;;;;;7.25;5.15;;;6.80;99.90;;;;;;5010434;28;20136;-71
2024/03/09 01:22:15;;;;;;;6.18;4.50;;;6.80;99.90;;;;;;5023047;28;20057;-74
2024/03/09 01:24:42;;;;;;;4.95;4.13;;;6.80;99.90;;;;;;5025937;28;20050;-74
2024/03/09 01:27:09;;;;;;;5.32;3.85;;;6.80;99.90;;;;;;5019211;28;20168;-70
2024/03/09 01:29:36;;;;;;;5.20;3.97;;;6.80;99.90;;;;;;5022539;28;20045;-70
2024/03/09 01:32:04;;;;;;;6.05;4.80;;;6.70;99.90;;;;;;5024261;28;20820;-71
2024/03/09 01:34:32;;;;;;;6.00;4.60;;;6.70;99.90;;;;;;5023176;28;20057;-71
2024/03/09 01:36:58;;;;;;;4.82;3.88;;;6.70;99.90;;;;;;5024276;28;20053;-71
2024/03/09 01:39:25;;;;;;;5.72;4.40;;;6.70;99.90;;;;;;5024602;28;20069;-75
2024/03/09 01:41:52;;;;;;;6.65;3.70;;;6.70;99.90;;;;;;5022187;28;20504;-73
2024/03/09 01:44:21;;;;;;;6.38;4.82;;;6.70;99.90;;;;;;5023597;28;20045;-76
2024/03/09 01:46:49;;;;;;;4.15;3.35;;;6.80;99.90;;;;;;5023726;28;20049;-75
2024/03/09 01:49:17;;;;;;;4.60;3.50;;;6.80;99.90;;;;;;5022998;28;20048;-73
2024/03/09 01:51:46;;;;;;;6.38;4.32;;;6.80;99.90;;;;;;5023748;28;20988;-75
2024/03/09 01:54:19;;;;;;;4.53;3.55;;;6.80;99.90;;;;;;5023546;28;20309;-74
2024/03/09 01:56:47;;;;;;;4.60;3.35;;;6.80;99.90;;;;;;5022335;28;20049;-70
2024/03/09 01:59:15;;;;;;;3.92;3.17;;;6.80;99.90;;;;;;5021802;28;20050;-72
2024/03/09 02:01:42;;;;;;;5.13;3.97;;;6.80;99.90;;;;;;5023061;28;20053;-76
2024/03/09 02:04:09;;;;;;;6.35;4.38;;;6.80;99.90;;;;;;5002671;28;20042;-73
2024/03/09 02:06:36;;;;;;;4.50;3.45;;;6.80;99.90;;;;;;5018891;28;20049;-74
2024/03/09 02:09:07;;;;;;;5.15;3.80;;;6.70;99.90;;;;;;5023399;28;20095;-73
2024/03/09 02:11:42;;;;;;;4.85;3.67;;;6.70;99.90;;;;;;5024397;28;20050;-75
2024/03/09 02:14:09;;;;;;;6.32;4.97;;;6.70;99.90;;;;;;5022088;28;20068;-75
2024/03/09 02:16:36;;;;;;;7.10;4.68;;;6.70;99.90;;;;;;5022110;28;20061;-74
2024/03/09 02:19:07;;;;;;;4.60;3.75;;;6.70;99.90;;;;;;5023795;28;20186;-76
2024/03/09 02:21:35;;;;;;;4.40;3.13;;;6.70;99.90;;;;;;5024173;28;20042;-74
2024/03/09 02:24:07;;;;;;;5.20;3.47;;;6.70;99.90;;;;;;5023094;28;20071;-75
2024/03/09 02:26:37;;;;;;;6.35;4.25;;;6.70;99.90;;;;;;5023392;28;20386;-72
2024/03/09 02:29:05;;;;;;;6.25;4.57;;;6.60;99.90;;;;;;4989141;28;20050;-75
2024/03/09 02:31:35;;;;;;;4.43;3.55;;;6.60;99.90;;;;;;5028387;23;20041;-85
2024/03/09 02:34:03;;;;;;;4.50;3.80;;;6.60;99.90;;;;;;4979290;28;20060;-86
2024/03/09 02:36:31;;;;;;;4.65;3.60;;;6.60;99.90;;;;;;4996158;28;20425;-86
2024/03/09 02:39:02;;;;;;;4.30;3.15;;;6.60;99.90;;;;;;5012514;28;20045;-86
2024/03/09 02:41:29;;;;;;;3.80;2.83;;;6.60;99.90;;;;;;5028883;28;20057;-86
2024/03/09 02:43:58;;;;;;;3.88;2.90;;;6.70;99.90;;;;;;5027770;28;20053;-85
2024/03/09 02:46:25;;;;;;;4.15;2.95;;;6.70;99.90;;;;;;4996619;28;20049;-86
2024/03/09 02:48:55;;;;;;;3.83;2.50;;;6.70;99.90;;;;;;5012309;28;20210;-86
2024/03/09 02:51:25;;;;;;;3.67;2.60;;;6.80;99.90;;;;;;5028526;28;20054;-86
2024/03/09 02:53:56;;;;;;;3.63;2.85;;;6.80;99.90;;;;;;5028306;28;20631;-86
2024/03/09 02:56:24;;;;;;;3.35;2.30;;;6.90;99.90;;;;;;4980486;28;20431;-86
2024/03/09 02:58:59;;;;;;;3.72;2.78;;;6.90;99.90;;;;;;5011555;28;20057;-86
2024/03/09 03:01:27;;;;;;;3.28;2.47;;;6.90;99.90;;;;;;5008886;28;20076;-87
2024/03/09 03:03:58;;;;;;;4.15;3.60;;;7.00;99.90;;;;;;4992787;28;20081;-87
2024/03/09 03:06:31;;;;;;;4.30;3.40;;;7.00;99.90;;;;;;4996443;28;20061;-86
2024/03/09 03:09:38;;;;;;;4.68;3.45;;;7.10;99.90;;;;;;5012964;28;20484;-87
2024/03/09 03:12:07;;;;;;;4.65;3.58;;;7.20;99.90;;;;;;5006382;28;20053;-86
2024/03/09 03:14:35;;;;;;;4.82;3.78;;;7.30;99.90;;;;;;4992768;28;20065;-87
2024/03/09 03:17:12;;;;;;;4.57;3.35;;;7.40;99.90;;;;;;5028135;28;20060;-85
2024/03/09 03:19:47;;;;;;;3.88;3.00;;;7.40;99.90;;;;;;5040911;28;20489;-85
2024/03/09 03:22:15;;;;;;;3.28;2.88;;;7.50;99.90;;;;;;5008116;28;20058;-85
2024/03/09 03:24:43;;;;;;;4.10;3.13;;;7.50;99.90;;;;;;4991449;28;20061;-85
2024/03/09 03:27:11;;;;;;;4.45;3.55;;;7.60;99.90;;;;;;4989709;28;20104;-84
2024/03/09 03:29:38;;;;;;;4.53;3.78;;;7.60;99.90;;;;;;4958746;28;20484;-84
2024/03/09 03:32:08;;;;;;;4.45;3.65;;;7.60;99.90;;;;;;4986910;28;20050;-84
2024/03/09 03:34:37;;;;;;;3.60;3.03;;;7.70;99.90;;;;;;4987652;28;20057;-84
2024/03/09 03:37:07;;;;;;;3.53;2.78;;;7.70;99.90;;;;;;4987698;28;20073;-85
2024/03/09 03:39:34;;;;;;;5.40;3.45;;;7.80;99.90;;;;;;4987559;28;20046;-84
2024/03/09 03:42:03;;;;;;;4.55;3.40;;;7.80;99.90;;;;;;4986930;28;20054;-85
2024/03/09 03:44:35;;;;;;;4.90;3.78;;;7.80;99.90;;;;;;4950656;28;20054;-85
2024/03/09 03:47:03;;;;;;;4.68;3.67;;;7.70;99.90;;;;;;4989063;28;20062;-86
2024/03/09 03:49:38;;;;;;;5.25;3.92;;;7.70;99.90;;;;;;4967031;28;20074;-86
2024/03/09 03:52:06;;;;;;;3.42;2.80;;;7.60;99.90;;;;;;5020876;28;20061;-87
2024/03/09 03:54:32;;;;;;;3.33;2.75;;;7.60;99.90;;;;;;5009168;28;20050;-87
2024/03/09 03:57:03;;;;;;;5.03;3.30;;;7.60;99.90;;;;;;4987893;28;20062;-87
2024/03/09 03:59:34;;;;;;;4.53;3.30;;;7.60;99.90;;;;;;5021441;28;20788;-87
2024/03/09 04:02:06;;;;;;;4.75;3.42;;;7.60;99.90;;;;;;5021661;28;20082;-87
2024/03/09 04:04:36;;;;;;;6.72;3.38;;;7.60;99.90;;;;;;5004951;28;20093;-87
2024/03/09 04:07:04;;;;;;;4.53;2.90;;;7.60;99.90;;;;;;5004270;28;20058;-86
2024/03/09 04:09:33;;;;;;;4.28;3.15;;;7.60;99.90;;;;;;4972559;28;20046;-87
2024/03/09 04:12:04;;;;;;;4.18;3.03;;;7.60;99.90;;;;;;4988549;28;20050;-87
2024/03/09 04:14:41;;;;;;;3.88;2.72;;;7.60;99.90;;;;;;4990216;28;20062;-86
2024/03/09 04:17:10;;;;;;;3.40;2.88;;;7.60;99.90;;;;;;4993205;28;20058;-85
2024/03/09 04:19:39;;;;;;;3.50;2.60;;;7.70;99.90;;;;;;4992495;28;20391;-85
2024/03/09 04:22:08;;;;;;;2.75;2.10;;;7.70;99.90;;;;;;4959712;28;20062;-86
2024/03/09 04:24:35;;;;;;;3.38;2.30;;;7.80;99.90;;;;;;4960868;28;20051;-86
2024/03/09 04:27:10;;;;;;;4.10;2.50;;;7.80;99.90;;;;;;4975434;28;20085;-87
2024/03/09 04:29:37;;;;;;;3.08;2.28;;;7.80;99.90;;;;;;5006811;28;20065;-86
2024/03/09 04:32:07;;;;;;;3.05;2.38;;;7.90;99.90;;;;;;4990233;28;20101;-87
2024/03/09 04:34:38;;;;;;;2.95;2.08;;;7.90;99.90;;;;;;4957037;28;20114;-87
2024/03/09 04:37:10;;;;;;;2.70;2.00;;;8.00;99.90;;;;;;4979927;28;20047;-86
2024/03/09 04:39:43;;;;;;;2.80;2.03;;;8.00;99.90;;;;;;4971975;28;20055;-86
2024/03/09 04:42:13;;;;;;;2.33;1.80;;;8.00;99.90;;;;;;4969865;28;20042;-86
2024/03/09 04:44:51;;;;;;;2.60;2.00;;;8.10;99.90;;;;;;4975186;28;20121;-86
2024/03/09 04:47:19;;;;;;;2.70;1.90;;;8.10;99.90;;;;;;4981382;28;20051;-87
2024/03/09 04:49:49;;;;;;;2.22;1.65;;;8.20;99.90;;;;;;4971929;28;20192;-87
2024/03/09 04:52:17;;;;;;;2.35;1.63;;;8.20;99.90;;;;;;4971846;28;20457;-86
2024/03/09 04:54:46;;;;;;;2.08;1.60;;;8.20;99.90;;;;;;4987566;28;20105;-87
2024/03/09 04:57:24;;;;;;;2.17;1.65;;;8.30;99.90;;;;;;4971089;28;20454;-87
2024/03/09 04:59:51;;;;;;;2.08;1.40;;;8.30;99.90;;;;;;4956217;28;20047;-87
2024/03/09 05:02:19;;;;;;;1.85;1.55;;;8.30;99.90;;;;;;4939517;28;20055;-86
2024/03/09 05:04:49;;;;;;;1.92;1.30;;;8.30;99.90;;;;;;4973445;28;20050;-85
2024/03/09 05:07:17;;;;;;;1.42;1.10;;;8.40;99.90;;;;;;4971380;28;20047;-86
2024/03/09 05:09:44;;;;;;;2.40;1.80;;;8.50;99.90;;;;;;4983965;28;20058;-86
2024/03/09 05:12:13;;;;;;;1.50;1.10;;;8.50;99.90;;;;;;4974577;28;20057;-86
2024/03/09 05:14:40;;;;;;;2.03;1.45;;;8.50;99.90;;;;;;4970927;28;20073;-86
2024/03/09 05:17:08;;;;;;;1.58;1.35;;;8.50;99.90;;;;;;4971199;28;20094;-86
2024/03/09 05:19:35;;;;;;;1.65;1.27;;;8.50;99.90;;;;;;4955690;28;20042;-87
2024/03/09 05:22:06;;;;;;;1.35;1.08;;;8.60;99.90;;;;;;4964938;28;20500;-86
2024/03/09 05:24:34;;;;;;;2.72;1.17;;;8.50;99.90;;;;;;4974175;28;20529;-86
2024/03/09 05:27:07;;;;;;;1.10;0.90;;;8.50;99.90;;;;;;4983138;28;20050;-87
2024/03/09 05:29:34;;;;;;;;;;;8.60;99.90;;;;;;4971702;28;20475;-89
2024/03/09 05:32:04;;;;;;;1.70;1.00;;;8.60;99.90;;;;;;4964525;28;20428;-86
2024/03/09 05:34:37;;;;;;;1.90;1.25;;;8.60;99.90;;;;;;4990725;28;20153;-88
2024/03/09 05:37:06;;;;;;;1.95;1.48;;;8.50;99.90;;;;;;4979336;28;20051;-88
2024/03/09 05:39:37;;;;;;;1.90;1.23;;;8.50;99.90;;;;;;4975045;28;20177;-87
2024/03/09 05:42:04;;;;;;;0.98;0.88;;;8.50;99.90;;;;;;4990639;28;20162;-88
2024/03/09 05:44:40;;;;;;;0.82;0.82;;;8.50;99.90;;;;;;4990522;28;20105;-88
2024/03/09 05:47:09;;;;;;;1.10;1.00;;;8.40;99.90;;;;;;4982819;28;20058;-87
2024/03/09 05:49:36;;;;;;;1.33;0.88;;;8.40;99.90;;;;;;4990929;28;20046;-88
2024/03/09 05:52:20;;;;;;;0.73;0.70;;;8.30;99.90;;;;;;4990830;28;20367;-87
2024/03/09 05:54:48;;;;;;;0.70;0.60;;;8.30;99.90;;;;;;4990348;28;20046;-89
2024/03/09 05:57:22;;;;;;;0.88;0.60;;;8.20;99.90;;;;;;4982411;28;20055;-89
2024/03/09 05:59:52;;;;;;;1.02;0.80;;;8.10;99.90;;;;;;4990884;28;20548;-87
2024/03/09 06:02:20;;;;;;;0.52;0.50;;;8.00;99.90;;;;;;4989953;28;20058;-88
2024/03/09 06:04:48;;;;;;;0.43;0.43;;;7.90;99.90;;;;;;4989180;28;20136;-87
2024/03/09 06:07:16;;;;;;;0.57;0.55;;;7.80;99.90;;;;;;4960222;28;20050;-90
2024/03/09 06:09:46;;;;;;;0.60;0.60;;;7.80;99.90;;;;;;4996919;28;20408;-89
2024/03/09 06:12:16;;;;;;;0.32;0.30;;;7.70;99.90;;;;;;4984844;28;20105;-88
2024/03/09 06:14:44;;;;;;;0.43;0.43;;;7.60;99.90;;;;;;4990811;28;20581;-89
2024/03/09 06:17:19;;;;;;;0.57;0.40;;;7.50;99.90;;;;;;4987567;28;20795;-89
2024/03/09 06:19:55;;;;;;;0.43;0.43;;;7.40;99.90;;;;;;5017534;28;20050;-89
2024/03/09 06:22:24;;;;;;;0.70;0.63;;;7.40;99.90;;;;;;4981173;28;20142;-88
2024/03/09 06:24:51;;;;;;;1.15;0.30;;;7.30;99.90;;;;;;5009271;28;20053;-87
2024/03/09 06:27:20;;;;;;;0.68;0.50;;;7.20;99.90;;;;;;4984523;28;20060;-87
2024/03/09 06:29:49;;;;;;;0.95;0.50;;;7.20;99.90;;;;;;4985501;28;20050;-88
2024/03/09 06:32:19;;;;;;;0.40;0.40;;;7.10;99.90;;;;;;4985825;28;20054;-87
2024/03/09 06:34:49;;;;;;;0.52;0.40;;;7.10;99.90;;;;;;4995170;28;20062;-88
2024/03/09 06:37:17;;;;;;;0.40;0.40;;;7.10;99.90;;;;;;4982912;28;20234;-88
2024/03/09 06:39:49;;;;;;;0.30;0.30;;;7.00;99.90;;;;;;4986809;28;20058;-88
2024/03/09 06:42:21;;;;;;;0.40;0.40;;;7.00;99.90;;;;;;4985080;28;20054;-88
2024/03/09 06:44:50;;;;;;;0.40;0.40;;;7.00;99.90;;;;;;4997777;28;20058;-86
2024/03/09 06:47:19;;;;;;;0.52;0.40;;;7.00;99.90;;;;;;4968455;28;20046;-88
2024/03/09 06:49:47;;;;;;;0.25;0.25;;;7.00;99.90;;;;;;4955287;28;20057;-89
2024/03/09 06:52:19;;;;;;;0.28;0.25;;;7.00;99.90;;;;;;4986618;28;20065;-89
2024/03/09 06:54:47;;;;;;;0.85;0.57;;;7.00;99.90;;;;;;4986892;28;20057;-86
2024/03/09 06:57:17;;;;;;;0.60;0.45;;;7.00;99.90;;;;;;4951395;28;20740;-88
2024/03/09 06:59:44;;;;;;;0.60;0.35;;;7.00;99.90;;;;;;4964421;28;20058;-76
2024/03/09 07:02:13;;;;;;;0.55;0.45;;;7.00;99.90;;;;;;4977724;28;20046;-82
2024/03/09 07:04:42;;;;;;;0.45;0.40;;;7.00;99.90;;;;;;4963041;28;20060;-78
2024/03/09 07:07:10;;;;;;;0.50;0.50;;;7.10;99.90;;;;;;4978647;28;20050;-79
2024/03/09 07:09:37;;;;;;;0.85;0.57;;;7.10;99.90;;;;;;4978313;28;20201;-79
2024/03/09 07:12:05;;;;;;;0.85;0.50;;;7.10;99.90;;;;;;4975867;28;20064;-80
2024/03/09 07:14:33;;;;;;;0.40;0.40;;;7.10;99.90;;;;;;4973442;28;20054;-80
2024/03/09 07:17:01;;;;;;;1.20;0.90;;;7.10;99.90;;;;;;4977639;28;20050;-79
2024/03/09 07:19:28;;;;;;;1.23;0.70;;;7.10;99.90;;;;;;4974315;28;20112;-80
2024/03/09 07:21:55;;;;;;;1.92;1.02;;;7.10;99.90;;;;;;4968689;28;20173;-79
2024/03/09 07:24:22;;;;;;;2.20;1.17;;;7.10;99.90;;;;;;4974150;28;20556;-80
2024/03/09 07:26:50;;;;;;;1.45;1.08;;;7.20;99.90;;;;;;4981581;28;20050;-81
2024/03/09 07:29:17;;;;;;;0.93;0.80;;;7.20;99.90;;;;;;4974694;28;20073;-80
2024/03/09 07:31:44;;;;;;;1.42;0.80;;;7.20;99.90;;;;;;4978773;28;20076;-80
2024/03/09 07:34:11;;;;;;;1.13;0.82;;;7.30;99.90;;;;;;4978185;28;20123;-80
2024/03/09 07:36:39;;;;;;;1.38;0.70;;;7.30;99.90;;;;;;4976035;28;20098;-79
2024/03/09 07:39:07;;;;;;;1.52;1.00;;;7.30;99.90;;;;;;4978949;28;20646;-80
2024/03/09 07:41:35;;;;;;;1.00;0.65;;;7.30;99.90;;;;;;4979336;28;20054;-80
2024/03/09 07:44:02;;;;;;;1.27;0.77;;;7.40;99.90;;;;;;4978359;28;20112;-80
2024/03/09 07:46:30;;;;;;;1.55;1.00;;;7.40;99.90;;;;;;5006895;28;20054;-79
2024/03/09 07:48:57;;;;;;;1.40;1.00;;;7.40;99.90;;;;;;4980706;28;20058;-80
2024/03/09 07:51:28;;;;;;;1.75;1.13;;;7.40;99.90;;;;;;4982789;28;20087;-79
2024/03/09 07:53:58;;;;;;;0.98;0.88;;;7.50;99.90;;;;;;4983417;28;20050;-80
2024/03/09 07:56:25;;;;;;;1.40;0.90;;;7.50;99.90;;;;;;4982439;28;20054;-79
2024/03/09 07:58:52;;;;;;;1.55;1.10;;;7.60;99.90;;;;;;4979707;28;20061;-81
2024/03/09 08:01:19;;;;;;;1.10;0.82;;;7.60;99.90;;;;;;4983624;28;20050;-80
2024/03/09 08:03:48;;;;;;;1.65;1.30;;;7.60;99.90;;;;;;4981681;28;20171;-79
2024/03/09 08:06:15;;;;;;;1.73;1.35;;;7.70;99.90;;;;;;4982594;28;20109;-79
2024/03/09 08:08:43;;;;;;;1.50;1.13;;;7.80;99.90;;;;;;4981267;28;20120;-79
2024/03/09 08:11:10;;;;;;;1.95;1.40;;;8.00;99.90;;;;;;4984975;28;20058;-80
2024/03/09 08:13:37;;;;;;;1.58;1.17;;;8.10;99.90;;;;;;4980392;28;20060;-80
2024/03/09 08:16:05;;;;;;;1.95;1.42;;;8.20;99.90;;;;;;4982287;28;20050;-79
2024/03/09 08:18:36;;;;;;;2.58;1.50;;;8.30;99.90;;;;;;4982654;28;20050;-80
2024/03/09 08:21:04;;;;;;;1.40;1.30;;;8.40;99.90;;;;;;4980286;28;20050;-80
2024/03/09 08:23:31;;;;;;;1.65;1.33;;;8.50;99.90;;;;;;4973997;28;20100;-79
2024/03/09 08:25:58;;;;;;;2.83;1.60;;;8.60;99.90;;;;;;4972355;28;20054;-79
2024/03/09 08:28:26;;;;;;;2.83;2.08;;;8.70;99.90;;;;;;4986123;28;20066;-82
2024/03/09 08:30:55;;;;;;;3.45;2.33;;;8.70;94.90;;;;;;4997442;28;20336;-79
2024/03/09 08:33:24;;;;;;;2.78;2.00;;;8.80;93.20;;;;;;4976676;28;20046;-80
2024/03/09 08:35:55;;;;;;;2.35;1.63;;;8.90;90.30;;;;;;4975764;28;20054;-79
2024/03/09 08:38:23;;;;;;;2.90;2.15;;;9.00;82.40;;;;;;4979348;28;20059;-81
2024/03/09 08:40:52;;;;;;;2.50;1.95;;;9.10;74.40;;;;;;5004925;28;20576;-81
2024/03/09 08:43:19;;;;;;;3.45;2.50;;;9.20;70.20;;;;;;4977787;28;20050;-81
2024/03/09 08:45:50;;;;;;;2.58;2.10;;;9.30;57.30;;;;;;4979697;28;20057;-81
2024/03/09 08:48:19;;;;;;;2.83;1.85;;;9.40;53.70;;;;;;4984575;28;20058;-81
2024/03/09 08:50:47;;;;;;;2.20;1.77;;;9.50;48.30;;;;;;4992332;28;20077;-81
2024/03/09 08:53:17;;;;;;;2.20;1.98;;;9.60;43.70;;;;;;4983034;28;20105;-80
2024/03/09 08:55:47;;;;;;;2.20;1.83;;;9.60;36.60;;;;;;4982359;28;20057;-80
2024/03/09 08:58:14;;;;;;;2.20;1.80;;;9.60;26.70;;;;;;4980385;28;20504;-80
2024/03/09 09:00:42;;;;;;;2.55;2.05;;;9.70;23.80;;;;;;4980928;28;20451;-81
2024/03/09 09:03:14;;;;;;;2.13;1.83;;;9.70;29.50;;;;;;4981016;28;20046;-80
2024/03/09 09:05:42;;;;;;;1.90;1.38;;;9.70;18.50;;;;;;5013196;28;20084;-80
2024/03/09 09:08:17;;;;;;;1.77;1.65;;;9.80;17.90;;;;;;5012646;28;20064;-81
2024/03/09 09:10:45;;;;;;;3.45;2.05;;;9.90;15.00;;;;;;4966907;28;20145;-80
2024/03/09 09:13:13;;;;;;;2.22;1.73;;;10.00;9.00;;;;;;4979561;28;20061;-80
2024/03/09 09:15:42;;;;;;;2.83;2.25;;;10.10;9.10;;;;;;4962123;28;20133;-80
2024/03/09 09:18:09;;;;;;;2.92;2.05;;;10.30;4.90;;;;;;4975772;28;20053;-80
2024/03/09 09:20:36;;;;;;;3.15;1.85;;;10.40;4.60;;;;;;4981253;28;20081;-80
2024/03/09 09:23:05;;;;;;;2.60;1.83;;;10.50;1.00;;;;;;4981612;28;20050;-81
2024/03/09 09:25:32;;;;;;;2.70;1.92;;;10.50;1.00;;;;;;4982143;28;20085;-80
2024/03/09 09:28:01;;;;;;;2.70;1.77;;;10.60;1.00;;;;;;4979220;28;20058;-80
2024/03/09 09:30:29;;;;;;;2.25;1.58;;;10.70;1.00;;;;;;4981251;28;20061;-80
2024/03/09 09:32:57;;;;;;;1.80;1.58;;;10.70;1.00;;;;;;4964136;28;20066;-81
2024/03/09 09:35:24;;;;;;;1.95;1.60;;;10.90;1.00;;;;;;4979565;28;20050;-81
2024/03/09 09:37:52;;;;;;;2.00;1.73;;;11.00;1.00;;;;;;4980542;28;20058;-81
2024/03/09 09:40:20;;;;;;;2.20;1.65;;;11.10;1.00;;;;;;4996351;28;20054;-79
2024/03/09 09:42:48;;;;;;;2.38;2.00;;;11.10;1.00;;;;;;4974971;28;20196;-80
2024/03/09 09:45:21;;;;;;;2.40;1.80;;;11.20;1.00;;;;;;4945796;28;20146;-80
2024/03/09 09:47:49;;;;;;;2.28;1.55;;;11.20;1.00;;;;;;4977871;28;20046;-80
2024/03/09 09:50:19;;;;;;;1.70;1.40;;;11.40;1.00;;;;;;4958785;28;20225;-80
2024/03/09 09:52:49;;;;;;;2.55;1.90;;;11.60;1.00;;;;;;4942016;28;20063;-81
2024/03/09 09:55:19;;;;;;;2.80;2.28;;;11.70;1.00;;;;;;4963314;28;20069;-81
2024/03/09 09:57:46;;;;;;;2.63;2.05;;;11.80;1.00;;;;;;4976742;28;20065;-80
2024/03/09 10:00:14;;;;;;;2.60;2.10;;;12.00;1.00;;;;;;4980375;28;20050;-80
2024/03/09 10:02:41;;;;;;;3.10;2.15;;;12.00;1.00;;;;;;4980353;28;20058;-80
2024/03/09 10:05:13;;;;;;;2.35;1.90;;;12.10;1.00;;;;;;4975956;28;20109;-79
2024/03/09 10:07:59;;;;;;;2.17;1.70;;;12.20;1.00;;;;;;4995927;28;20054;-80
2024/03/09 10:10:27;;;;;;;1.75;1.48;;;12.40;1.00;;;;;;4973635;28;20046;-81
2024/03/09 10:13:13;;;;;;;2.67;1.73;;;12.60;1.00;;;;;;4969394;28;20302;-81
2024/03/09 10:15:49;;;;;;;2.03;1.55;;;12.60;1.00;;;;;;4980056;28;20057;-82
2024/03/09 10:18:16;;;;;;;3.33;1.90;;;12.60;1.00;;;;;;4982774;28;20049;-84
2024/03/09 10:20:44;;;;;;;2.60;1.92;;;12.60;1.00;;;;;;4983230;28;20480;-81
2024/03/09 10:23:15;;;;;;;2.60;2.10;;;12.60;1.00;;;;;;4982667;28;20046;-81
2024/03/09 10:25:42;;;;;;;2.95;2.00;;;12.60;1.00;;;;;;4987418;28;20441;-82
2024/03/09 10:28:15;;;;;;;1.98;1.60;;;12.60;1.00;;;;;;4972003;28;20140;-81
2024/03/09 10:30:42;;;;;;;2.70;1.98;;;12.70;1.00;;;;;;4970465;28;20050;-82
2024/03/09 10:33:10;;;;;;;3.28;2.45;;;12.70;1.00;;;;;;4965233;28;20058;-81
2024/03/09 10:35:40;;;;;;;2.20;1.77;;;12.60;1.00;;;;;;4967320;28;20104;-80
2024/03/09 10:38:08;;;;;;;2.22;1.52;;;12.60;1.00;;;;;;4979178;28;20047;-81
2024/03/09 10:40:37;;;;;;;1.98;1.63;;;12.70;1.00;;;;;;4986683;28;20142;-86
2024/03/09 10:43:04;;;;;;;1.98;1.67;;;12.80;1.00;;;;;;4985285;28;20556;-82
2024/03/09 10:45:33;;;;;;;2.67;2.05;;;13.10;1.00;;;;;;4986981;28;20125;-82
2024/03/09 10:48:05;;;;;;;2.55;1.60;;;13.30;1.00;;;;;;4984934;28;20816;-80
2024/03/09 10:50:37;;;;;;;2.83;2.03;;;13.40;1.00;;;;;;4985735;28;20054;-89
2024/03/09 10:53:10;;;;;;;2.47;1.58;;;13.50;1.00;;;;;;4986996;28;20050;-84
2024/03/09 10:55:43;;;;;;;;;;;13.60;1.00;;;;;;4986026;28;20054;-84
2024/03/09 10:58:13;;;;;;;1.47;1.17;;;13.80;1.00;;;;;;5015584;28;19926;-86
2024/03/09 11:00:49;;;;;;;1.75;1.35;;;13.90;1.00;;;;;;4991788;28;20296;-87
2024/03/09 11:03:23;;;;;;;3.00;1.83;;;14.00;1.00;;;;;;4992745;28;20046;-87
2024/03/09 11:05:55;;;;;;;3.45;2.50;;;14.00;1.00;;;;;;4984466;28;20137;-82
2024/03/09 11:08:22;;;;;;;3.20;2.60;;;13.90;1.00;;;;;;4981991;28;20043;-81
2024/03/09 11:10:49;;;;;;;4.43;3.15;;;13.80;1.00;;;;;;4983497;28;20482;-81
2024/03/09 11:13:20;;;;;;;3.95;2.88;;;13.70;1.00;;;;;;4981594;28;20050;-80
2024/03/09 11:15:51;;;;;;;3.95;3.00;;;13.70;1.00;;;;;;4983459;28;20422;-82
2024/03/09 11:18:23;;;;;;;3.13;2.47;;;13.80;1.00;;;;;;4978865;28;20085;-80
2024/03/09 11:20:59;;;;;;;3.42;2.72;;;14.00;1.00;;;;;;4979309;28;20062;-82
2024/03/09 11:23:33;;;;;;;3.55;2.38;;;14.20;1.00;;;;;;4966319;28;20418;-82
2024/03/09 11:26:03;;;;;;;3.83;3.33;;;14.40;1.00;;;;;;4985548;28;20089;-81
2024/03/09 11:28:43;;;;;;;4.57;3.85;;;14.50;1.00;;;;;;4975711;28;20414;-79
2024/03/09 11:31:11;;;;;;;4.63;3.83;;;14.40;1.00;;;;;;4981490;28;20054;-80
2024/03/09 11:33:51;;;;;;;4.65;4.03;;;14.20;1.00;;;;;;4998098;28;20057;-82
2024/03/09 11:36:41;;;;;;;4.95;4.30;;;14.10;1.00;;;;;;4991723;28;20069;-82
2024/03/09 11:39:08;;;;;;;4.93;4.05;;;14.00;1.00;;;;;;4992770;28;20053;-79
2024/03/09 11:41:36;;;;;;;5.00;4.13;;;13.80;1.00;;;;;;4981511;28;20842;-81
2024/03/09 11:44:06;;;;;;;4.55;3.67;;;13.70;1.00;;;;;;4980413;28;20045;-80
2024/03/09 11:46:34;;;;;;;5.30;3.63;;;13.80;1.00;;;;;;4981616;28;20054;-81
2024/03/09 11:49:04;;;;;;;4.60;3.50;;;14.00;1.00;;;;;;4999032;28;20116;-80
2024/03/09 11:51:35;;;;;;;4.55;3.85;;;14.10;1.00;;;;;;4982951;28;20089;-81
2024/03/09 11:54:03;;;;;;;4.82;3.80;;;14.20;1.00;;;;;;4981374;28;20096;-80
2024/03/09 11:56:33;;;;;;;4.45;3.75;;;14.30;1.00;;;;;;4997702;28;20057;-80
2024/03/09 11:59:01;;;;;;;4.82;3.90;;;14.40;1.00;;;;;;4978727;28;20139;-81
2024/03/09 12:01:29;;;;;;;4.43;3.83;;;14.30;1.00;;;;;;4981527;28;20092;-81
2024/03/09 12:03:59;;;;;;;4.15;3.70;;;14.10;1.00;;;;;;4998472;28;20065;-81
2024/03/09 12:06:28;;;;;;;7.30;4.18;;;14.00;1.00;;;;;;4999033;28;20148;-80
2024/03/09 12:08:55;;;;;;;4.22;3.83;;;14.10;1.00;;;;;;4980911;28;20073;-80
2024/03/09 12:11:22;;;;;;;3.88;3.35;;;14.20;1.00;;;;;;4981374;28;20295;-80
2024/03/09 12:13:52;;;;;;;4.45;3.75;;;14.50;1.00;;;;;;4995083;28;20060;-81
2024/03/09 12:16:19;;;;;;;4.70;4.25;;;14.60;1.00;;;;;;4999132;28;20062;-81
2024/03/09 12:18:50;;;;;;;4.35;3.85;;;14.60;1.00;;;;;;4981176;28;20049;-81
2024/03/09 12:21:17;;;;;;;6.25;3.90;;;14.50;1.00;;;;;;5004459;28;20096;-81
2024/03/09 12:23:52;;;;;;;4.75;3.72;;;14.40;1.00;;;;;;4980339;28;20405;-81
2024/03/09 12:26:20;;;;;;;5.47;4.18;;;14.40;1.00;;;;;;4980007;28;20115;-80
2024/03/09 12:28:47;;;;;;;5.93;4.95;;;14.50;1.00;;;;;;4977106;28;20050;-81
2024/03/09 12:31:15;;;;;;;5.72;4.80;;;14.70;1.00;;;;;;4989569;28;20061;-90
2024/03/09 12:33:44;;;;;;;6.03;5.13;;;14.70;1.00;;;;;;4983744;28;20270;-79
2024/03/09 12:36:11;;;;;;;6.25;4.72;;;14.90;1.00;;;;;;4944573;28;20124;-79
2024/03/09 12:38:38;;;;;;;5.05;3.92;;;15.10;1.00;;;;;;5001219;28;20049;-77
2024/03/09 12:41:25;;;;;;;4.85;4.32;;;15.50;1.00;;;;;;4984588;28;20060;-79
2024/03/09 12:43:55;;;;;;;4.85;4.22;;;15.50;1.00;;;;;;4983196;28;20374;-82
2024/03/09 12:46:26;;;;;;;5.18;4.53;;;15.20;1.00;;;;;;5002369;28;20053;-81
2024/03/09 12:48:57;;;;;;;7.00;4.70;;;14.90;1.00;;;;;;5002171;28;20053;-80
2024/03/09 12:51:24;;;;;;;5.22;4.72;;;15.00;1.00;;;;;;5001418;28;20128;-78
2024/03/09 12:53:57;;;;;;;6.63;4.75;;;14.90;1.00;;;;;;4983652;28;20057;-79
2024/03/09 12:56:30;;;;;;;5.95;4.50;;;14.80;1.00;;;;;;5001110;28;20557;-79
2024/03/09 12:59:01;;;;;;;5.20;4.70;;;14.60;1.00;;;;;;5000426;28;20049;-88
2024/03/09 13:01:36;;;;;;;5.88;4.95;;;14.50;1.00;;;;;;4990849;28;20061;-88
2024/03/09 13:04:07;;;;;;;5.43;4.53;;;14.50;1.00;;;;;;5015039;28;20050;-79
2024/03/09 13:06:41;;;;;;;6.72;6.03;;;14.40;1.00;;;;;;5000502;28;20056;-79
2024/03/09 13:09:10;;;;;;;5.88;5.15;;;14.30;1.00;;;;;;4977795;28;20079;-80